createdAt,value
2022-12-03T00:00:51.117Z,1.38
2022-12-03T00:05:52.706Z,1.47
2022-12-03T00:10:54.283Z,1.51
2022-12-03T00:15:56.205Z,1.44
2022-12-03T00:20:57.859Z,1.62
2022-12-03T00:25:59.435Z,1.42
2022-12-03T00:31:01.075Z,1.45
2022-12-03T00:36:02.738Z,1.66
2022-12-03T00:41:04.415Z,1.61
2022-12-03T00:46:06.246Z,1.65
2022-12-03T00:51:07.905Z,1.44
2022-12-03T00:56:09.556Z,1.68
2022-12-03T01:01:11.133Z,1.76
2022-12-03T01:06:12.728Z,1.71
2022-12-03T01:11:33.143Z,1.59
2022-12-03T01:16:35.310Z,1.50
2022-12-03T01:21:37.745Z,1.65
2022-12-03T01:26:39.459Z,1.66
2022-12-03T01:31:59.643Z,1.50
2022-12-03T01:37:01.269Z,1.28
2022-12-03T01:42:03.326Z,1.22
2022-12-03T01:47:07.565Z,1.47
2022-12-03T01:52:14.284Z,1.74
2022-12-03T01:57:35.740Z,1.73
2022-12-03T02:02:37.320Z,1.61
2022-12-03T02:07:38.977Z,1.45
2022-12-03T02:12:48.080Z,1.39
2022-12-03T02:17:50.338Z,1.38
2022-12-03T02:23:36.060Z,1.12
2022-12-03T02:28:38.510Z,1.25
2022-12-03T02:33:40.183Z,1.28
2022-12-03T02:38:43.646Z,1.49
2022-12-03T02:43:45.264Z,1.31
2022-12-03T02:48:46.876Z,1.16
2022-12-03T02:53:50.683Z,1.33
2022-12-03T02:58:55.125Z,1.62
2022-12-03T03:03:58.045Z,1.45
2022-12-03T03:08:59.671Z,1.36
2022-12-03T03:14:02.713Z,1.29
2022-12-03T03:19:04.498Z,1.22
2022-12-03T03:24:06.457Z,1.14
2022-12-03T03:29:08.259Z,1.23
2022-12-03T03:34:10.554Z,1.48
2022-12-03T03:39:12.916Z,1.47
2022-12-03T03:44:14.616Z,1.43
2022-12-03T03:49:16.371Z,1.46
2022-12-03T03:54:18.232Z,1.64
2022-12-03T03:59:19.871Z,1.57
2022-12-03T04:04:23.822Z,1.59
2022-12-03T04:09:25.473Z,1.15
2022-12-03T04:14:27.105Z,1.00
2022-12-03T04:19:28.696Z,0.88
2022-12-03T04:24:30.293Z,0.86
2022-12-03T04:29:31.907Z,0.90
2022-12-03T04:34:52.624Z,0.77
2022-12-03T04:39:54.606Z,0.81
2022-12-03T04:44:58.421Z,0.90
2022-12-03T04:50:00.022Z,0.86
2022-12-03T04:55:01.665Z,1.08
2022-12-03T05:00:05.111Z,1.33
2022-12-03T05:05:07.077Z,1.38
2022-12-03T05:10:10.247Z,1.05
2022-12-03T05:15:11.848Z,1.10
2022-12-03T05:20:32.707Z,1.10
2022-12-03T05:25:34.348Z,1.00
2022-12-03T05:30:36.252Z,1.04
2022-12-03T05:35:38.592Z,0.96
2022-12-03T05:40:40.525Z,1.11
2022-12-03T05:45:44.383Z,1.12
2022-12-03T05:50:46.964Z,1.27
2022-12-03T05:55:48.562Z,1.38
2022-12-03T06:00:50.156Z,0.97
2022-12-03T06:05:51.773Z,0.96
2022-12-03T06:10:53.388Z,1.03
2022-12-03T06:15:55.181Z,1.06
2022-12-03T06:20:56.792Z,1.11
2022-12-03T06:25:58.555Z,1.00
2022-12-03T06:31:00.253Z,1.04
2022-12-03T06:36:01.920Z,1.09
2022-12-03T06:41:03.702Z,1.06
2022-12-03T06:46:05.584Z,1.11
2022-12-03T06:51:07.281Z,0.98
2022-12-03T06:56:08.888Z,0.87
2022-12-03T07:01:10.738Z,0.95
2022-12-03T07:06:12.704Z,0.81
2022-12-03T07:11:32.684Z,0.98
2022-12-03T07:16:35.549Z,1.07
2022-12-03T07:21:37.476Z,1.03
2022-12-03T07:26:39.284Z,1.11
2022-12-03T07:31:42.615Z,0.93
2022-12-03T07:36:44.259Z,0.94
2022-12-03T07:41:45.857Z,1.11
2022-12-03T07:46:47.555Z,0.83
2022-12-03T07:51:54.301Z,0.77
2022-12-03T07:57:01.175Z,0.91
2022-12-03T08:02:03.619Z,0.95
2022-12-03T08:07:06.108Z,0.93
2022-12-03T08:12:17.212Z,0.89
2022-12-03T08:17:19.870Z,0.93
2022-12-03T08:22:22.322Z,0.82
2022-12-03T08:27:23.988Z,0.80
2022-12-03T08:32:25.595Z,0.78
2022-12-03T08:37:27.219Z,0.78
2022-12-03T08:42:42.008Z,0.92
2022-12-03T08:47:43.599Z,1.03
2022-12-03T08:52:45.211Z,1.04
2022-12-03T08:57:46.938Z,1.26
2022-12-03T09:02:52.361Z,1.18
2022-12-03T09:07:54.127Z,1.28
2022-12-03T09:12:55.802Z,1.25
2022-12-03T09:17:57.435Z,1.29
2022-12-03T09:22:59.029Z,1.08
2022-12-03T09:28:00.676Z,1.27
2022-12-03T09:33:02.574Z,1.34
2022-12-03T09:38:04.172Z,1.51
2022-12-03T09:43:07.146Z,1.73
2022-12-03T09:48:10.302Z,1.70
2022-12-03T09:53:17.864Z,1.60
2022-12-03T09:58:20.819Z,1.75
2022-12-03T10:03:29.980Z,1.38
2022-12-03T10:08:33.352Z,1.69
2022-12-03T10:13:37.687Z,1.92
2022-12-03T10:18:43.238Z,1.64
2022-12-03T10:23:49.515Z,1.44
2022-12-03T10:28:56.836Z,1.59
2022-12-03T10:33:58.556Z,1.68
2022-12-03T10:39:14.444Z,1.85
2022-12-03T10:44:21.768Z,1.91
2022-12-03T10:49:23.357Z,1.97
2022-12-03T10:54:27.682Z,1.65
2022-12-03T10:59:33.300Z,1.74
2022-12-03T11:04:36.466Z,1.71
2022-12-03T11:09:38.300Z,1.52
2022-12-03T11:14:52.590Z,1.56
2022-12-03T11:19:54.690Z,1.70
2022-12-03T11:25:27.182Z,1.54
2022-12-03T11:30:48.856Z,1.53
2022-12-03T11:36:02.662Z,1.66
2022-12-03T11:41:24.360Z,1.64
2022-12-03T11:46:43.553Z,1.82
2022-12-03T11:51:45.308Z,1.83
2022-12-03T11:56:51.463Z,1.85
2022-12-03T12:01:53.080Z,1.70
2022-12-03T12:06:54.673Z,1.84
2022-12-03T12:11:56.283Z,1.97
2022-12-03T12:16:58.524Z,1.75
2022-12-03T12:22:12.558Z,1.52
2022-12-03T12:27:32.467Z,1.51
2022-12-03T12:32:44.321Z,1.49
2022-12-03T12:38:11.377Z,1.71
2022-12-03T12:43:26.420Z,1.68
2022-12-03T12:48:39.748Z,1.70
2022-12-03T12:53:45.405Z,1.81
2022-12-03T12:58:47.022Z,1.86
2022-12-03T13:03:51.932Z,1.61
2022-12-03T13:08:54.452Z,1.67
2022-12-03T13:13:56.313Z,1.60
2022-12-03T13:19:00.817Z,1.50
2022-12-03T13:24:03.598Z,1.52
2022-12-03T13:29:16.938Z,1.66
2022-12-03T13:34:24.617Z,1.77
2022-12-03T13:39:32.507Z,1.76
2022-12-03T13:44:36.654Z,1.71
2022-12-03T13:49:38.330Z,1.94
2022-12-03T13:54:40.029Z,1.98
2022-12-03T13:59:41.722Z,2.05
2022-12-03T14:04:43.348Z,1.94
2022-12-03T14:09:44.959Z,1.97
2022-12-03T14:14:46.619Z,1.83
2022-12-03T14:19:48.303Z,1.87
2022-12-03T14:24:50.384Z,1.89
2022-12-03T14:29:52.599Z,1.87
2022-12-03T14:34:54.565Z,1.69
2022-12-03T14:39:56.457Z,1.84
2022-12-03T14:44:58.410Z,1.76
2022-12-03T14:50:00.011Z,1.84
2022-12-03T14:55:01.995Z,1.92
2022-12-03T15:00:07.573Z,1.80
2022-12-03T15:05:09.571Z,1.91
2022-12-03T15:10:11.322Z,1.89
2022-12-03T15:15:12.926Z,1.91
2022-12-03T15:20:14.725Z,1.95
2022-12-03T15:25:24.157Z,2.06
2022-12-03T15:30:25.859Z,1.83
2022-12-03T15:35:27.456Z,1.69
2022-12-03T15:40:29.081Z,1.51
2022-12-03T15:45:30.690Z,1.39
2022-12-03T15:50:35.789Z,1.36
2022-12-03T15:55:41.437Z,1.32
2022-12-03T16:00:43.055Z,1.32
2022-12-03T16:05:44.662Z,1.30
2022-12-03T16:10:46.330Z,1.07
2022-12-03T16:15:48.128Z,1.17
2022-12-03T16:20:49.915Z,1.14
2022-12-03T16:25:51.552Z,0.92
2022-12-03T16:30:53.601Z,1.17
2022-12-03T16:35:55.350Z,1.10
2022-12-03T16:40:57.748Z,0.92
2022-12-03T16:46:02.887Z,0.95
2022-12-03T16:51:04.879Z,0.97
2022-12-03T16:56:06.540Z,0.77
2022-12-03T17:01:08.643Z,1.00
2022-12-03T17:06:10.358Z,1.05
2022-12-03T17:11:12.061Z,1.25
2022-12-03T17:16:13.800Z,1.29
2022-12-03T17:21:15.528Z,1.30
2022-12-03T17:26:20.416Z,1.12
2022-12-03T17:31:22.091Z,1.07
2022-12-03T17:36:24.909Z,1.22
2022-12-03T17:41:26.836Z,1.28
2022-12-03T17:46:28.537Z,1.32
2022-12-03T17:51:30.656Z,1.33
2022-12-03T17:56:32.890Z,1.44
2022-12-03T18:01:34.601Z,1.63
2022-12-03T18:06:36.647Z,1.60
2022-12-03T18:11:38.349Z,1.38
2022-12-03T18:16:40.361Z,1.14
2022-12-03T18:21:42.145Z,1.02
2022-12-03T18:26:43.783Z,1.18
2022-12-03T18:31:45.508Z,0.94
2022-12-03T18:36:49.663Z,0.97
2022-12-03T18:41:52.238Z,1.12
2022-12-03T18:46:55.988Z,1.26
2022-12-03T18:51:59.767Z,1.22
2022-12-03T18:57:01.544Z,1.28
2022-12-03T19:02:03.348Z,1.35
2022-12-03T19:07:05.108Z,1.29
2022-12-03T19:12:14.288Z,1.18
2022-12-03T19:17:16.385Z,1.16
2022-12-03T19:22:17.981Z,1.04
2022-12-03T19:27:19.583Z,1.03
2022-12-03T19:32:21.216Z,1.10
2022-12-03T19:37:22.845Z,1.25
2022-12-03T19:42:24.534Z,1.46
2022-12-03T19:47:26.394Z,1.65
2022-12-03T19:52:28.027Z,1.65
2022-12-03T19:57:29.608Z,1.60
2022-12-03T20:02:31.279Z,1.36
2022-12-03T20:07:33.100Z,1.38
2022-12-03T20:12:34.702Z,1.34
2022-12-03T20:17:36.889Z,1.36
2022-12-03T20:22:38.955Z,1.44
2022-12-03T20:27:40.697Z,1.37
2022-12-03T20:32:45.499Z,1.40
2022-12-03T20:37:47.459Z,1.43
2022-12-03T20:42:49.211Z,1.60
2022-12-03T20:47:50.803Z,1.55
2022-12-03T20:53:16.276Z,1.55
2022-12-03T20:58:15.022Z,1.09
2022-12-03T21:03:16.875Z,1.27
2022-12-03T21:08:34.032Z,1.34
2022-12-03T21:13:41.706Z,0.99
2022-12-03T21:18:43.972Z,1.09
2022-12-03T21:23:45.709Z,1.15
2022-12-03T21:28:49.644Z,1.22
2022-12-03T21:33:54.762Z,1.14
2022-12-03T21:38:56.484Z,1.33
2022-12-03T21:43:58.766Z,1.42
2022-12-03T21:49:01.148Z,1.22
2022-12-03T21:54:03.229Z,1.27
2022-12-03T21:59:04.829Z,1.27
2022-12-03T22:04:06.473Z,1.21
2022-12-03T22:09:08.062Z,1.03
2022-12-03T22:14:10.000Z,1.11
2022-12-03T22:19:11.587Z,0.93
2022-12-03T22:24:13.269Z,1.04
2022-12-03T22:29:15.086Z,0.99
2022-12-03T22:34:16.708Z,1.09
2022-12-03T22:39:18.328Z,1.10
2022-12-03T22:44:20.134Z,1.35
2022-12-03T22:49:21.734Z,1.15
2022-12-03T22:54:24.337Z,1.23
2022-12-03T22:59:26.056Z,0.94
2022-12-03T23:04:27.645Z,0.91
2022-12-03T23:09:29.321Z,0.91
2022-12-03T23:14:30.968Z,0.94
2022-12-03T23:19:32.663Z,1.00
2022-12-03T23:24:34.375Z,1.21
2022-12-03T23:29:35.978Z,1.10
2022-12-03T23:34:37.589Z,1.23
2022-12-03T23:39:39.307Z,1.38
2022-12-03T23:44:40.926Z,1.22
2022-12-03T23:49:42.571Z,1.26
2022-12-03T23:54:44.209Z,1.32
2022-12-03T23:59:45.792Z,1.45
